sensor_id;sensor_type;location;lat;lon;timestamp;P1;durP1;ratioP1;P2;durP2;ratioP2
3149;SDS011;32503;47.748;8.960;2022-08-20T00:00:20;21.03;;;18.90;;
3149;SDS011;32503;47.748;8.960;2022-08-20T00:02:50;20.70;;;18.60;;
3149;SDS011;32503;47.748;8.960;2022-08-20T00:05:22;20.20;;;18.10;;
3149;SDS011;32503;47.748;8.960;2022-08-20T00:07:55;21.97;;;19.60;;
3149;SDS011;32503;47.748;8.960;2022-08-20T00:10:24;24.00;;;20.80;;
3149;SDS011;32503;47.748;8.960;2022-08-20T00:12:53;22.27;;;19.87;;
3149;SDS011;32503;47.748;8.960;2022-08-20T00:15:28;22.00;;;19.60;;
3149;SDS011;32503;47.748;8.960;2022-08-20T00:17:58;21.73;;;18.97;;
3149;SDS011;32503;47.748;8.960;2022-08-20T00:20:27;21.63;;;19.43;;
3149;SDS011;32503;47.748;8.960;2022-08-20T00:23:00;18.57;;;16.77;;
3149;SDS011;32503;47.748;8.960;2022-08-20T00:25:27;20.20;;;18.20;;
3149;SDS011;32503;47.748;8.960;2022-08-20T00:27:55;19.80;;;17.80;;
3149;SDS011;32503;47.748;8.960;2022-08-20T00:30:24;19.27;;;17.13;;
3149;SDS011;32503;47.748;8.960;2022-08-20T00:32:52;20.57;;;18.50;;
3149;SDS011;32503;47.748;8.960;2022-08-20T00:35:22;24.10;;;19.10;;
3149;SDS011;32503;47.748;8.960;2022-08-20T00:37:53;19.07;;;17.20;;
3149;SDS011;32503;47.748;8.960;2022-08-20T00:40:23;19.63;;;17.53;;
3149;SDS011;32503;47.748;8.960;2022-08-20T00:42:59;21.17;;;18.83;;
3149;SDS011;32503;47.748;8.960;2022-08-20T00:45:31;21.33;;;19.07;;
3149;SDS011;32503;47.748;8.960;2022-08-20T00:48:00;18.67;;;16.60;;
3149;SDS011;32503;47.748;8.960;2022-08-20T00:50:30;20.43;;;18.30;;
3149;SDS011;32503;47.748;8.960;2022-08-20T00:53:03;20.17;;;18.07;;
3149;SDS011;32503;47.748;8.960;2022-08-20T00:55:34;26.00;;;20.20;;
3149;SDS011;32503;47.748;8.960;2022-08-20T00:58:03;20.27;;;18.10;;
3149;SDS011;32503;47.748;8.960;2022-08-20T01:00:35;22.87;;;19.00;;
3149;SDS011;32503;47.748;8.960;2022-08-20T01:03:07;22.50;;;19.30;;
3149;SDS011;32503;47.748;8.960;2022-08-20T01:05:37;20.03;;;17.97;;
3149;SDS011;32503;47.748;8.960;2022-08-20T01:08:09;19.73;;;17.80;;
3149;SDS011;32503;47.748;8.960;2022-08-20T01:10:39;20.00;;;17.90;;
3149;SDS011;32503;47.748;8.960;2022-08-20T01:13:10;18.70;;;16.80;;
3149;SDS011;32503;47.748;8.960;2022-08-20T01:15:43;28.60;;;21.40;;
3149;SDS011;32503;47.748;8.960;2022-08-20T01:18:15;25.63;;;19.13;;
3149;SDS011;32503;47.748;8.960;2022-08-20T01:20:47;22.63;;;19.60;;
3149;SDS011;32503;47.748;8.960;2022-08-20T01:23:20;21.47;;;19.10;;
3149;SDS011;32503;47.748;8.960;2022-08-20T01:25:56;23.90;;;20.20;;
3149;SDS011;32503;47.748;8.960;2022-08-20T01:28:30;20.37;;;17.97;;
3149;SDS011;32503;47.748;8.960;2022-08-20T01:31:04;21.70;;;19.40;;
3149;SDS011;32503;47.748;8.960;2022-08-20T01:33:35;19.87;;;17.77;;
3149;SDS011;32503;47.748;8.960;2022-08-20T01:36:03;21.83;;;18.80;;
3149;SDS011;32503;47.748;8.960;2022-08-20T01:38:32;20.30;;;18.30;;
3149;SDS011;32503;47.748;8.960;2022-08-20T01:41:15;21.73;;;19.33;;
3149;SDS011;32503;47.748;8.960;2022-08-20T01:44:13;23.80;;;18.57;;
3149;SDS011;32503;47.748;8.960;2022-08-20T01:46:41;21.57;;;19.30;;
3149;SDS011;32503;47.748;8.960;2022-08-20T01:49:11;24.50;;;20.60;;
3149;SDS011;32503;47.748;8.960;2022-08-20T01:51:48;25.73;;;21.23;;
3149;SDS011;32503;47.748;8.960;2022-08-20T01:54:16;21.63;;;19.13;;
3149;SDS011;32503;47.748;8.960;2022-08-20T01:56:53;21.83;;;19.30;;
3149;SDS011;32503;47.748;8.960;2022-08-20T01:59:22;25.93;;;20.23;;
3149;SDS011;32503;47.748;8.960;2022-08-20T02:01:50;23.70;;;19.30;;
3149;SDS011;32503;47.748;8.960;2022-08-20T02:04:18;23.53;;;20.97;;
3149;SDS011;32503;47.748;8.960;2022-08-20T02:06:47;27.07;;;22.20;;
3149;SDS011;32503;47.748;8.960;2022-08-20T02:09:30;23.83;;;20.70;;
3149;SDS011;32503;47.748;8.960;2022-08-20T02:12:01;22.37;;;19.97;;
3149;SDS011;32503;47.748;8.960;2022-08-20T02:14:30;30.50;;;20.77;;
3149;SDS011;32503;47.748;8.960;2022-08-20T02:16:58;23.93;;;20.17;;
3149;SDS011;32503;47.748;8.960;2022-08-20T02:19:26;28.87;;;20.53;;
3149;SDS011;32503;47.748;8.960;2022-08-20T02:21:59;24.00;;;20.57;;
3149;SDS011;32503;47.748;8.960;2022-08-20T02:24:34;23.37;;;20.43;;
3149;SDS011;32503;47.748;8.960;2022-08-20T02:27:02;23.93;;;20.80;;
3149;SDS011;32503;47.748;8.960;2022-08-20T02:29:29;21.90;;;19.40;;
3149;SDS011;32503;47.748;8.960;2022-08-20T02:31:57;25.77;;;21.13;;
3149;SDS011;32503;47.748;8.960;2022-08-20T02:34:24;28.00;;;21.67;;
3149;SDS011;32503;47.748;8.960;2022-08-20T02:36:51;25.50;;;21.23;;
3149;SDS011;32503;47.748;8.960;2022-08-20T02:39:18;26.53;;;22.03;;
3149;SDS011;32503;47.748;8.960;2022-08-20T02:41:45;21.40;;;19.00;;
3149;SDS011;32503;47.748;8.960;2022-08-20T02:44:15;25.63;;;20.47;;
3149;SDS011;32503;47.748;8.960;2022-08-20T02:46:44;27.63;;;22.23;;
3149;SDS011;32503;47.748;8.960;2022-08-20T02:49:14;24.93;;;19.93;;
3149;SDS011;32503;47.748;8.960;2022-08-20T02:51:42;24.87;;;22.17;;
3149;SDS011;32503;47.748;8.960;2022-08-20T02:54:09;26.80;;;21.27;;
3149;SDS011;32503;47.748;8.960;2022-08-20T02:56:37;24.03;;;19.40;;
3149;SDS011;32503;47.748;8.960;2022-08-20T02:59:05;24.20;;;20.00;;
3149;SDS011;32503;47.748;8.960;2022-08-20T03:01:33;23.53;;;19.47;;
3149;SDS011;32503;47.748;8.960;2022-08-20T03:04:01;23.70;;;20.80;;
3149;SDS011;32503;47.748;8.960;2022-08-20T03:06:29;30.37;;;23.40;;
3149;SDS011;32503;47.748;8.960;2022-08-20T03:08:56;25.57;;;21.50;;
3149;SDS011;32503;47.748;8.960;2022-08-20T03:11:23;25.37;;;21.43;;
3149;SDS011;32503;47.748;8.960;2022-08-20T03:13:50;22.47;;;20.00;;
3149;SDS011;32503;47.748;8.960;2022-08-20T03:16:17;24.37;;;20.50;;
3149;SDS011;32503;47.748;8.960;2022-08-20T03:18:46;22.50;;;19.10;;
3149;SDS011;32503;47.748;8.960;2022-08-20T03:21:13;26.40;;;20.53;;
3149;SDS011;32503;47.748;8.960;2022-08-20T03:23:41;26.50;;;22.67;;
3149;SDS011;32503;47.748;8.960;2022-08-20T03:26:10;26.10;;;22.20;;
3149;SDS011;32503;47.748;8.960;2022-08-20T03:28:40;29.50;;;22.10;;
3149;SDS011;32503;47.748;8.960;2022-08-20T03:31:08;25.80;;;20.77;;
3149;SDS011;32503;47.748;8.960;2022-08-20T03:33:36;26.20;;;20.10;;
3149;SDS011;32503;47.748;8.960;2022-08-20T03:36:05;24.10;;;20.43;;
3149;SDS011;32503;47.748;8.960;2022-08-20T03:38:33;25.90;;;20.80;;
3149;SDS011;32503;47.748;8.960;2022-08-20T03:41:01;25.00;;;20.50;;
3149;SDS011;32503;47.748;8.960;2022-08-20T03:43:29;26.20;;;21.30;;
3149;SDS011;32503;47.748;8.960;2022-08-20T03:45:57;25.63;;;21.40;;
3149;SDS011;32503;47.748;8.960;2022-08-20T03:48:24;26.00;;;21.10;;
3149;SDS011;32503;47.748;8.960;2022-08-20T03:50:52;26.63;;;21.50;;
3149;SDS011;32503;47.748;8.960;2022-08-20T03:53:21;22.20;;;19.37;;
3149;SDS011;32503;47.748;8.960;2022-08-20T03:55:48;26.03;;;20.97;;
3149;SDS011;32503;47.748;8.960;2022-08-20T03:58:19;22.47;;;19.20;;
3149;SDS011;32503;47.748;8.960;2022-08-20T04:00:49;26.40;;;20.23;;
3149;SDS011;32503;47.748;8.960;2022-08-20T04:03:16;25.20;;;21.20;;
3149;SDS011;32503;47.748;8.960;2022-08-20T04:05:44;25.43;;;20.27;;
3149;SDS011;32503;47.748;8.960;2022-08-20T04:08:13;26.93;;;20.30;;
3149;SDS011;32503;47.748;8.960;2022-08-20T04:10:46;24.60;;;20.30;;
3149;SDS011;32503;47.748;8.960;2022-08-20T04:13:16;24.33;;;20.60;;
3149;SDS011;32503;47.748;8.960;2022-08-20T04:15:45;23.13;;;19.40;;
3149;SDS011;32503;47.748;8.960;2022-08-20T04:18:13;24.47;;;20.30;;
3149;SDS011;32503;47.748;8.960;2022-08-20T04:20:44;22.47;;;19.00;;
3149;SDS011;32503;47.748;8.960;2022-08-20T04:23:12;22.80;;;20.07;;
3149;SDS011;32503;47.748;8.960;2022-08-20T04:25:40;25.50;;;20.00;;
3149;SDS011;32503;47.748;8.960;2022-08-20T04:28:12;25.77;;;21.53;;
3149;SDS011;32503;47.748;8.960;2022-08-20T04:30:41;24.27;;;20.03;;
3149;SDS011;32503;47.748;8.960;2022-08-20T04:33:08;26.20;;;21.40;;
3149;SDS011;32503;47.748;8.960;2022-08-20T04:35:35;27.10;;;22.23;;
3149;SDS011;32503;47.748;8.960;2022-08-20T04:38:03;26.03;;;20.50;;
3149;SDS011;32503;47.748;8.960;2022-08-20T04:40:33;26.63;;;21.20;;
3149;SDS011;32503;47.748;8.960;2022-08-20T04:43:24;23.90;;;19.47;;
3149;SDS011;32503;47.748;8.960;2022-08-20T04:45:53;26.53;;;20.70;;
3149;SDS011;32503;47.748;8.960;2022-08-20T04:48:24;26.30;;;20.27;;
3149;SDS011;32503;47.748;8.960;2022-08-20T04:50:52;20.20;;;17.77;;
3149;SDS011;32503;47.748;8.960;2022-08-20T04:53:21;21.47;;;18.60;;
3149;SDS011;32503;47.748;8.960;2022-08-20T04:55:52;20.70;;;18.50;;
3149;SDS011;32503;47.748;8.960;2022-08-20T04:58:23;23.10;;;19.10;;
3149;SDS011;32503;47.748;8.960;2022-08-20T05:00:54;24.47;;;20.00;;
3149;SDS011;32503;47.748;8.960;2022-08-20T05:03:24;24.90;;;19.63;;
3149;SDS011;32503;47.748;8.960;2022-08-20T05:05:52;20.17;;;17.50;;
3149;SDS011;32503;47.748;8.960;2022-08-20T05:08:22;23.40;;;19.90;;
3149;SDS011;32503;47.748;8.960;2022-08-20T05:10:52;19.87;;;17.77;;
3149;SDS011;32503;47.748;8.960;2022-08-20T05:13:23;24.23;;;18.20;;
3149;SDS011;32503;47.748;8.960;2022-08-20T05:15:52;20.40;;;17.20;;
3149;SDS011;32503;47.748;8.960;2022-08-20T05:18:21;18.67;;;16.67;;
3149;SDS011;32503;47.748;8.960;2022-08-20T05:20:50;18.47;;;16.23;;
3149;SDS011;32503;47.748;8.960;2022-08-20T05:23:19;18.07;;;16.27;;
3149;SDS011;32503;47.748;8.960;2022-08-20T05:25:47;20.33;;;17.10;;
3149;SDS011;32503;47.748;8.960;2022-08-20T05:28:17;16.70;;;14.97;;
3149;SDS011;32503;47.748;8.960;2022-08-20T05:30:49;18.33;;;16.20;;
3149;SDS011;32503;47.748;8.960;2022-08-20T05:33:19;17.40;;;15.50;;
3149;SDS011;32503;47.748;8.960;2022-08-20T05:35:48;20.43;;;16.57;;
3149;SDS011;32503;47.748;8.960;2022-08-20T05:38:17;20.77;;;17.77;;
3149;SDS011;32503;47.748;8.960;2022-08-20T05:40:46;21.00;;;17.10;;
3149;SDS011;32503;47.748;8.960;2022-08-20T05:43:13;19.20;;;17.00;;
3149;SDS011;32503;47.748;8.960;2022-08-20T05:45:42;16.87;;;15.10;;
3149;SDS011;32503;47.748;8.960;2022-08-20T05:48:15;18.50;;;16.77;;
3149;SDS011;32503;47.748;8.960;2022-08-20T05:50:45;17.77;;;15.87;;
3149;SDS011;32503;47.748;8.960;2022-08-20T05:53:14;16.60;;;14.90;;
3149;SDS011;32503;47.748;8.960;2022-08-20T05:55:42;18.67;;;16.77;;
3149;SDS011;32503;47.748;8.960;2022-08-20T05:58:13;18.00;;;16.20;;
3149;SDS011;32503;47.748;8.960;2022-08-20T06:00:44;15.97;;;14.27;;
3149;SDS011;32503;47.748;8.960;2022-08-20T06:03:14;18.67;;;16.83;;
3149;SDS011;32503;47.748;8.960;2022-08-20T06:05:59;18.53;;;16.63;;
3149;SDS011;32503;47.748;8.960;2022-08-20T06:08:27;15.60;;;14.10;;
3149;SDS011;32503;47.748;8.960;2022-08-20T06:10:54;15.07;;;13.73;;
3149;SDS011;32503;47.748;8.960;2022-08-20T06:13:21;16.27;;;14.20;;
3149;SDS011;32503;47.748;8.960;2022-08-20T06:15:49;19.57;;;17.33;;
3149;SDS011;32503;47.748;8.960;2022-08-20T06:18:17;16.40;;;14.90;;
3149;SDS011;32503;47.748;8.960;2022-08-20T06:20:44;15.60;;;14.10;;
3149;SDS011;32503;47.748;8.960;2022-08-20T06:23:11;16.23;;;14.80;;
3149;SDS011;32503;47.748;8.960;2022-08-20T06:25:39;16.03;;;14.40;;
3149;SDS011;32503;47.748;8.960;2022-08-20T06:28:07;14.17;;;12.93;;
3149;SDS011;32503;47.748;8.960;2022-08-20T06:30:34;17.27;;;15.57;;
3149;SDS011;32503;47.748;8.960;2022-08-20T06:33:02;14.47;;;12.97;;
3149;SDS011;32503;47.748;8.960;2022-08-20T06:35:31;15.70;;;14.20;;
3149;SDS011;32503;47.748;8.960;2022-08-20T06:37:58;14.93;;;13.63;;
3149;SDS011;32503;47.748;8.960;2022-08-20T06:40:26;15.90;;;14.43;;
3149;SDS011;32503;47.748;8.960;2022-08-20T06:42:54;14.27;;;12.87;;
3149;SDS011;32503;47.748;8.960;2022-08-20T06:45:23;15.83;;;14.03;;
3149;SDS011;32503;47.748;8.960;2022-08-20T06:47:53;16.47;;;14.90;;
3149;SDS011;32503;47.748;8.960;2022-08-20T06:50:24;16.63;;;15.17;;
3149;SDS011;32503;47.748;8.960;2022-08-20T06:52:57;14.43;;;13.17;;
3149;SDS011;32503;47.748;8.960;2022-08-20T06:55:24;15.20;;;13.83;;
3149;SDS011;32503;47.748;8.960;2022-08-20T06:57:56;13.30;;;12.07;;
3149;SDS011;32503;47.748;8.960;2022-08-20T07:00:24;12.77;;;11.77;;
3149;SDS011;32503;47.748;8.960;2022-08-20T07:02:53;13.93;;;12.60;;
3149;SDS011;32503;47.748;8.960;2022-08-20T07:05:21;15.00;;;13.70;;
3149;SDS011;32503;47.748;8.960;2022-08-20T07:07:48;12.63;;;11.73;;
3149;SDS011;32503;47.748;8.960;2022-08-20T07:10:17;13.60;;;12.50;;
3149;SDS011;32503;47.748;8.960;2022-08-20T07:12:46;11.53;;;10.63;;
3149;SDS011;32503;47.748;8.960;2022-08-20T07:15:14;12.20;;;11.30;;
3149;SDS011;32503;47.748;8.960;2022-08-20T07:17:47;14.07;;;12.97;;
3149;SDS011;32503;47.748;8.960;2022-08-20T07:20:18;12.90;;;11.80;;
3149;SDS011;32503;47.748;8.960;2022-08-20T07:22:46;13.93;;;12.73;;
3149;SDS011;32503;47.748;8.960;2022-08-20T07:25:14;12.83;;;11.90;;
3149;SDS011;32503;47.748;8.960;2022-08-20T07:27:45;13.97;;;12.77;;
3149;SDS011;32503;47.748;8.960;2022-08-20T07:30:15;13.23;;;12.03;;
3149;SDS011;32503;47.748;8.960;2022-08-20T07:33:09;13.00;;;12.00;;
3149;SDS011;32503;47.748;8.960;2022-08-20T07:35:38;13.40;;;12.20;;
3149;SDS011;32503;47.748;8.960;2022-08-20T07:38:06;15.07;;;13.47;;
3149;SDS011;32503;47.748;8.960;2022-08-20T07:40:43;12.87;;;11.87;;
3149;SDS011;32503;47.748;8.960;2022-08-20T07:43:12;12.07;;;11.17;;
3149;SDS011;32503;47.748;8.960;2022-08-20T07:45:40;12.80;;;11.80;;
3149;SDS011;32503;47.748;8.960;2022-08-20T07:48:08;13.20;;;12.10;;
3149;SDS011;32503;47.748;8.960;2022-08-20T07:50:38;12.53;;;11.50;;
3149;SDS011;32503;47.748;8.960;2022-08-20T07:53:06;13.60;;;12.50;;
3149;SDS011;32503;47.748;8.960;2022-08-20T07:55:33;14.30;;;13.00;;
3149;SDS011;32503;47.748;8.960;2022-08-20T07:58:05;14.17;;;12.90;;
3149;SDS011;32503;47.748;8.960;2022-08-20T08:00:35;11.93;;;11.03;;
3149;SDS011;32503;47.748;8.960;2022-08-20T08:03:02;14.10;;;12.80;;
3149;SDS011;32503;47.748;8.960;2022-08-20T08:05:30;12.93;;;12.00;;
3149;SDS011;32503;47.748;8.960;2022-08-20T08:07:59;12.10;;;11.10;;
3149;SDS011;32503;47.748;8.960;2022-08-20T08:10:27;13.60;;;12.40;;
3149;SDS011;32503;47.748;8.960;2022-08-20T08:12:57;10.57;;;9.87;;
3149;SDS011;32503;47.748;8.960;2022-08-20T08:15:30;12.70;;;11.80;;
3149;SDS011;32503;47.748;8.960;2022-08-20T08:18:05;12.53;;;11.53;;
3149;SDS011;32503;47.748;8.960;2022-08-20T08:20:41;16.00;;;12.63;;
3149;SDS011;32503;47.748;8.960;2022-08-20T08:23:09;11.40;;;10.43;;
3149;SDS011;32503;47.748;8.960;2022-08-20T08:25:37;12.10;;;11.20;;
3149;SDS011;32503;47.748;8.960;2022-08-20T08:28:06;15.43;;;13.97;;
3149;SDS011;32503;47.748;8.960;2022-08-20T08:30:37;13.23;;;12.23;;
3149;SDS011;32503;47.748;8.960;2022-08-20T08:33:05;11.63;;;10.70;;
3149;SDS011;32503;47.748;8.960;2022-08-20T08:35:46;11.00;;;10.20;;
3149;SDS011;32503;47.748;8.960;2022-08-20T08:38:14;11.03;;;10.13;;
3149;SDS011;32503;47.748;8.960;2022-08-20T08:40:41;11.83;;;10.73;;
3149;SDS011;32503;47.748;8.960;2022-08-20T08:43:10;10.90;;;10.10;;
3149;SDS011;32503;47.748;8.960;2022-08-20T08:45:42;9.93;;;9.17;;
3149;SDS011;32503;47.748;8.960;2022-08-20T08:48:14;10.70;;;9.87;;
3149;SDS011;32503;47.748;8.960;2022-08-20T08:50:46;10.47;;;9.67;;
3149;SDS011;32503;47.748;8.960;2022-08-20T08:53:17;11.10;;;10.30;;
3149;SDS011;32503;47.748;8.960;2022-08-20T08:55:49;10.63;;;9.93;;
3149;SDS011;32503;47.748;8.960;2022-08-20T08:58:17;9.23;;;8.53;;
3149;SDS011;32503;47.748;8.960;2022-08-20T09:00:45;8.33;;;7.70;;
3149;SDS011;32503;47.748;8.960;2022-08-20T09:03:15;8.47;;;7.93;;
3149;SDS011;32503;47.748;8.960;2022-08-20T09:05:50;7.80;;;7.40;;
3149;SDS011;32503;47.748;8.960;2022-08-20T09:08:21;8.93;;;8.33;;
3149;SDS011;32503;47.748;8.960;2022-08-20T09:10:54;7.93;;;7.43;;
3149;SDS011;32503;47.748;8.960;2022-08-20T09:13:27;8.00;;;7.40;;
3149;SDS011;32503;47.748;8.960;2022-08-20T09:15:56;7.13;;;6.73;;
3149;SDS011;32503;47.748;8.960;2022-08-20T09:18:23;6.50;;;6.20;;
3149;SDS011;32503;47.748;8.960;2022-08-20T09:20:50;7.47;;;7.13;;
3149;SDS011;32503;47.748;8.960;2022-08-20T09:23:18;7.27;;;6.87;;
3149;SDS011;32503;47.748;8.960;2022-08-20T09:25:45;7.23;;;6.90;;
3149;SDS011;32503;47.748;8.960;2022-08-20T09:28:12;6.70;;;6.40;;
3149;SDS011;32503;47.748;8.960;2022-08-20T09:30:39;8.27;;;7.83;;
3149;SDS011;32503;47.748;8.960;2022-08-20T09:33:07;6.70;;;6.40;;
3149;SDS011;32503;47.748;8.960;2022-08-20T09:35:34;6.80;;;6.50;;
3149;SDS011;32503;47.748;8.960;2022-08-20T09:38:02;6.60;;;6.30;;
3149;SDS011;32503;47.748;8.960;2022-08-20T09:40:29;6.80;;;6.43;;
3149;SDS011;32503;47.748;8.960;2022-08-20T09:42:56;5.97;;;5.70;;
3149;SDS011;32503;47.748;8.960;2022-08-20T09:45:23;5.97;;;5.67;;
3149;SDS011;32503;47.748;8.960;2022-08-20T09:47:51;5.60;;;5.40;;
3149;SDS011;32503;47.748;8.960;2022-08-20T09:50:19;6.00;;;5.70;;
3149;SDS011;32503;47.748;8.960;2022-08-20T09:52:47;6.00;;;5.60;;
3149;SDS011;32503;47.748;8.960;2022-08-20T09:55:19;5.20;;;5.00;;
3149;SDS011;32503;47.748;8.960;2022-08-20T09:57:51;4.87;;;4.67;;
3149;SDS011;32503;47.748;8.960;2022-08-20T10:00:19;5.10;;;4.80;;
3149;SDS011;32503;47.748;8.960;2022-08-20T10:02:46;5.40;;;5.20;;
3149;SDS011;32503;47.748;8.960;2022-08-20T10:05:13;5.03;;;4.83;;
3149;SDS011;32503;47.748;8.960;2022-08-20T10:07:42;5.37;;;5.17;;
3149;SDS011;32503;47.748;8.960;2022-08-20T10:10:11;5.00;;;4.60;;
3149;SDS011;32503;47.748;8.960;2022-08-20T10:12:40;4.37;;;4.17;;
3149;SDS011;32503;47.748;8.960;2022-08-20T10:15:07;3.53;;;3.43;;
3149;SDS011;32503;47.748;8.960;2022-08-20T10:17:36;4.00;;;3.80;;
3149;SDS011;32503;47.748;8.960;2022-08-20T10:20:05;3.43;;;3.33;;
3149;SDS011;32503;47.748;8.960;2022-08-20T10:22:35;2.93;;;2.83;;
3149;SDS011;32503;47.748;8.960;2022-08-20T10:25:04;3.10;;;2.90;;
3149;SDS011;32503;47.748;8.960;2022-08-20T10:27:33;4.10;;;3.80;;
3149;SDS011;32503;47.748;8.960;2022-08-20T10:30:02;2.97;;;2.87;;
3149;SDS011;32503;47.748;8.960;2022-08-20T10:32:31;3.70;;;3.50;;
3149;SDS011;32503;47.748;8.960;2022-08-20T10:34:58;4.37;;;3.03;;
3149;SDS011;32503;47.748;8.960;2022-08-20T10:37:25;3.40;;;3.30;;
3149;SDS011;32503;47.748;8.960;2022-08-20T10:39:53;3.07;;;2.97;;
3149;SDS011;32503;47.748;8.960;2022-08-20T10:42:22;2.93;;;2.80;;
3149;SDS011;32503;47.748;8.960;2022-08-20T10:44:49;3.00;;;2.90;;
3149;SDS011;32503;47.748;8.960;2022-08-20T10:47:18;2.40;;;2.30;;
3149;SDS011;32503;47.748;8.960;2022-08-20T10:49:48;2.37;;;2.27;;
3149;SDS011;32503;47.748;8.960;2022-08-20T10:52:17;2.17;;;2.07;;
3149;SDS011;32503;47.748;8.960;2022-08-20T10:54:44;2.93;;;2.40;;
3149;SDS011;32503;47.748;8.960;2022-08-20T10:57:12;2.40;;;2.30;;
3149;SDS011;32503;47.748;8.960;2022-08-20T10:59:44;2.37;;;2.27;;
3149;SDS011;32503;47.748;8.960;2022-08-20T11:02:13;2.50;;;2.40;;
3149;SDS011;32503;47.748;8.960;2022-08-20T11:04:41;2.70;;;2.60;;
3149;SDS011;32503;47.748;8.960;2022-08-20T11:07:09;2.27;;;2.17;;
3149;SDS011;32503;47.748;8.960;2022-08-20T11:09:41;2.43;;;2.33;;
3149;SDS011;32503;47.748;8.960;2022-08-20T11:12:09;2.63;;;2.53;;
3149;SDS011;32503;47.748;8.960;2022-08-20T11:14:37;2.63;;;2.53;;
3149;SDS011;32503;47.748;8.960;2022-08-20T11:17:06;2.30;;;2.20;;
3149;SDS011;32503;47.748;8.960;2022-08-20T11:19:37;2.37;;;2.27;;
3149;SDS011;32503;47.748;8.960;2022-08-20T11:22:05;2.43;;;2.33;;
3149;SDS011;32503;47.748;8.960;2022-08-20T11:24:33;2.70;;;2.60;;
3149;SDS011;32503;47.748;8.960;2022-08-20T11:27:00;2.77;;;2.67;;
3149;SDS011;32503;47.748;8.960;2022-08-20T11:29:28;1.77;;;1.67;;
3149;SDS011;32503;47.748;8.960;2022-08-20T11:31:55;2.40;;;2.30;;
3149;SDS011;32503;47.748;8.960;2022-08-20T11:34:24;1.80;;;1.70;;
3149;SDS011;32503;47.748;8.960;2022-08-20T11:36:51;1.70;;;1.60;;
3149;SDS011;32503;47.748;8.960;2022-08-20T11:39:18;1.80;;;1.70;;
3149;SDS011;32503;47.748;8.960;2022-08-20T11:41:46;1.53;;;1.43;;
3149;SDS011;32503;47.748;8.960;2022-08-20T11:44:13;1.60;;;1.50;;
3149;SDS011;32503;47.748;8.960;2022-08-20T11:46:40;1.20;;;1.10;;
3149;SDS011;32503;47.748;8.960;2022-08-20T11:49:07;1.20;;;1.10;;
3149;SDS011;32503;47.748;8.960;2022-08-20T11:51:35;0.80;;;0.80;;
3149;SDS011;32503;47.748;8.960;2022-08-20T11:54:03;0.80;;;0.80;;
3149;SDS011;32503;47.748;8.960;2022-08-20T11:56:30;1.30;;;1.20;;
3149;SDS011;32503;47.748;8.960;2022-08-20T11:58:57;0.80;;;0.80;;
3149;SDS011;32503;47.748;8.960;2022-08-20T12:01:24;0.80;;;0.80;;
3149;SDS011;32503;47.748;8.960;2022-08-20T12:03:52;1.13;;;1.10;;
3149;SDS011;32503;47.748;8.960;2022-08-20T12:06:19;1.30;;;1.20;;
3149;SDS011;32503;47.748;8.960;2022-08-20T12:08:47;0.80;;;0.80;;
3149;SDS011;32503;47.748;8.960;2022-08-20T12:11:14;0.80;;;0.80;;
3149;SDS011;32503;47.748;8.960;2022-08-20T12:13:41;1.40;;;1.30;;
3149;SDS011;32503;47.748;8.960;2022-08-20T12:16:08;0.80;;;0.80;;
3149;SDS011;32503;47.748;8.960;2022-08-20T12:18:35;0.90;;;0.90;;
3149;SDS011;32503;47.748;8.960;2022-08-20T12:21:02;1.00;;;0.87;;
3149;SDS011;32503;47.748;8.960;2022-08-20T12:23:30;1.00;;;1.00;;
3149;SDS011;32503;47.748;8.960;2022-08-20T12:25:58;1.00;;;1.00;;
3149;SDS011;32503;47.748;8.960;2022-08-20T12:28:27;0.90;;;0.90;;
3149;SDS011;32503;47.748;8.960;2022-08-20T12:30:55;1.17;;;1.10;;
3149;SDS011;32503;47.748;8.960;2022-08-20T12:33:22;1.37;;;0.83;;
3149;SDS011;32503;47.748;8.960;2022-08-20T12:35:49;1.10;;;1.07;;
3149;SDS011;32503;47.748;8.960;2022-08-20T12:38:17;1.00;;;0.90;;
3149;SDS011;32503;47.748;8.960;2022-08-20T12:40:44;0.80;;;0.80;;
3149;SDS011;32503;47.748;8.960;2022-08-20T12:43:13;1.33;;;0.90;;
3149;SDS011;32503;47.748;8.960;2022-08-20T12:45:40;0.80;;;0.80;;
3149;SDS011;32503;47.748;8.960;2022-08-20T12:48:08;0.80;;;0.80;;
3149;SDS011;32503;47.748;8.960;2022-08-20T12:50:38;1.40;;;1.30;;
3149;SDS011;32503;47.748;8.960;2022-08-20T12:53:07;2.17;;;1.00;;
3149;SDS011;32503;47.748;8.960;2022-08-20T12:55:35;0.80;;;0.80;;
3149;SDS011;32503;47.748;8.960;2022-08-20T12:58:02;2.07;;;1.63;;
3149;SDS011;32503;47.748;8.960;2022-08-20T13:00:35;0.90;;;0.90;;
3149;SDS011;32503;47.748;8.960;2022-08-20T13:03:08;1.43;;;1.33;;
3149;SDS011;32503;47.748;8.960;2022-08-20T13:05:37;1.77;;;1.67;;
3149;SDS011;32503;47.748;8.960;2022-08-20T13:08:05;1.03;;;1.00;;
3149;SDS011;32503;47.748;8.960;2022-08-20T13:10:36;0.90;;;0.87;;
3149;SDS011;32503;47.748;8.960;2022-08-20T13:13:08;0.90;;;0.90;;
3149;SDS011;32503;47.748;8.960;2022-08-20T13:15:37;3.63;;;1.10;;
3149;SDS011;32503;47.748;8.960;2022-08-20T13:18:04;1.37;;;0.80;;
3149;SDS011;32503;47.748;8.960;2022-08-20T13:20:32;2.17;;;1.13;;
3149;SDS011;32503;47.748;8.960;2022-08-20T13:23:00;2.27;;;1.40;;
3149;SDS011;32503;47.748;8.960;2022-08-20T13:25:28;1.60;;;1.50;;
3149;SDS011;32503;47.748;8.960;2022-08-20T13:27:57;2.23;;;1.20;;
3149;SDS011;32503;47.748;8.960;2022-08-20T13:30:28;2.13;;;0.90;;
3149;SDS011;32503;47.748;8.960;2022-08-20T13:32:56;1.50;;;1.03;;
3149;SDS011;32503;47.748;8.960;2022-08-20T13:35:24;2.87;;;0.90;;
3149;SDS011;32503;47.748;8.960;2022-08-20T13:37:51;0.80;;;0.60;;
3149;SDS011;32503;47.748;8.960;2022-08-20T13:40:18;3.20;;;0.70;;
3149;SDS011;32503;47.748;8.960;2022-08-20T13:42:45;2.63;;;0.70;;
3149;SDS011;32503;47.748;8.960;2022-08-20T13:45:12;0.70;;;0.60;;
3149;SDS011;32503;47.748;8.960;2022-08-20T13:47:40;0.70;;;0.60;;
3149;SDS011;32503;47.748;8.960;2022-08-20T13:50:10;0.70;;;0.50;;
3149;SDS011;32503;47.748;8.960;2022-08-20T13:52:40;1.20;;;0.70;;
3149;SDS011;32503;47.748;8.960;2022-08-20T13:55:09;0.80;;;0.70;;
3149;SDS011;32503;47.748;8.960;2022-08-20T13:57:40;0.70;;;0.70;;
3149;SDS011;32503;47.748;8.960;2022-08-20T14:00:09;5.50;;;0.93;;
3149;SDS011;32503;47.748;8.960;2022-08-20T14:02:40;0.70;;;0.70;;
3149;SDS011;32503;47.748;8.960;2022-08-20T14:05:10;0.80;;;0.80;;
3149;SDS011;32503;47.748;8.960;2022-08-20T14:07:39;1.57;;;0.80;;
3149;SDS011;32503;47.748;8.960;2022-08-20T14:10:09;1.30;;;1.00;;
3149;SDS011;32503;47.748;8.960;2022-08-20T14:12:40;1.60;;;1.10;;
3149;SDS011;32503;47.748;8.960;2022-08-20T14:15:08;1.00;;;0.97;;
3149;SDS011;32503;47.748;8.960;2022-08-20T14:17:37;1.60;;;1.13;;
3149;SDS011;32503;47.748;8.960;2022-08-20T14:20:06;2.27;;;0.90;;
3149;SDS011;32503;47.748;8.960;2022-08-20T14:22:38;1.10;;;0.90;;
3149;SDS011;32503;47.748;8.960;2022-08-20T14:25:07;6.00;;;5.50;;
3149;SDS011;32503;47.748;8.960;2022-08-20T14:27:37;3.23;;;3.03;;
3149;SDS011;32503;47.748;8.960;2022-08-20T14:30:05;3.30;;;3.10;;
3149;SDS011;32503;47.748;8.960;2022-08-20T14:32:36;1.97;;;1.87;;
3149;SDS011;32503;47.748;8.960;2022-08-20T14:35:04;2.33;;;1.80;;
3149;SDS011;32503;47.748;8.960;2022-08-20T14:37:34;2.00;;;1.90;;
3149;SDS011;32503;47.748;8.960;2022-08-20T14:40:05;2.50;;;1.43;;
3149;SDS011;32503;47.748;8.960;2022-08-20T14:42:36;1.80;;;1.70;;
3149;SDS011;32503;47.748;8.960;2022-08-20T14:45:04;5.63;;;1.70;;
3149;SDS011;32503;47.748;8.960;2022-08-20T14:47:34;2.00;;;1.43;;
3149;SDS011;32503;47.748;8.960;2022-08-20T14:50:04;1.23;;;1.13;;
3149;SDS011;32503;47.748;8.960;2022-08-20T14:52:36;1.73;;;1.63;;
3149;SDS011;32503;47.748;8.960;2022-08-20T14:55:06;1.40;;;1.30;;
3149;SDS011;32503;47.748;8.960;2022-08-20T14:57:36;2.00;;;1.90;;